createdAt,value
2023-05-05T00:01:28.120Z,1.52
2023-05-05T00:03:54.672Z,2.30
2023-05-05T00:06:21.193Z,1.50
2023-05-05T00:08:47.723Z,1.42
2023-05-05T00:11:14.256Z,1.65
2023-05-05T00:13:40.863Z,1.98
2023-05-05T00:16:07.713Z,2.15
2023-05-05T00:18:34.231Z,1.38
2023-05-05T00:21:01.075Z,1.48
2023-05-05T00:23:27.665Z,1.67
2023-05-05T00:25:54.161Z,1.65
2023-05-05T00:28:21.062Z,1.23
2023-05-05T00:30:47.552Z,2.08
2023-05-05T00:33:14.096Z,1.85
2023-05-05T00:35:40.797Z,2.00
2023-05-05T00:38:07.473Z,1.65
2023-05-05T00:40:34.058Z,2.08
2023-05-05T00:43:00.682Z,1.63
2023-05-05T00:45:27.408Z,1.55
2023-05-05T00:47:58.641Z,1.70
2023-05-05T00:50:30.414Z,1.30
2023-05-05T00:53:07.306Z,1.88
2023-05-05T00:55:35.061Z,1.38
2023-05-05T00:58:03.460Z,2.05
2023-05-05T01:00:30.831Z,1.63
2023-05-05T01:02:57.962Z,1.60
2023-05-05T01:05:27.365Z,1.02
2023-05-05T01:07:54.487Z,1.50
2023-05-05T01:10:48.917Z,1.48
2023-05-05T01:13:43.260Z,1.75
2023-05-05T01:16:09.879Z,1.40
2023-05-05T01:18:51.610Z,2.08
2023-05-05T01:21:56.651Z,0.90
2023-05-05T01:25:00.775Z,1.20
2023-05-05T01:27:48.352Z,1.10
2023-05-05T01:30:29.204Z,1.10
2023-05-05T01:33:02.706Z,1.40
2023-05-05T01:35:32.913Z,1.08
2023-05-05T01:38:05.810Z,1.08
2023-05-05T01:40:39.037Z,1.30
2023-05-05T01:43:08.618Z,1.27
2023-05-05T01:45:39.354Z,1.08
2023-05-05T01:48:07.124Z,1.00
2023-05-05T01:50:34.634Z,1.30
2023-05-05T01:53:03.725Z,1.38
2023-05-05T01:55:32.405Z,1.48
2023-05-05T01:58:01.476Z,1.40
2023-05-05T02:00:28.653Z,0.90
2023-05-05T02:02:57.714Z,0.90
2023-05-05T02:05:26.634Z,0.70
2023-05-05T02:07:57.778Z,1.08
2023-05-05T02:10:24.700Z,1.00
2023-05-05T02:12:53.270Z,1.13
2023-05-05T02:15:22.142Z,1.25
2023-05-05T02:17:52.858Z,1.00
2023-05-05T02:20:20.573Z,0.90
2023-05-05T02:22:47.385Z,0.95
2023-05-05T02:25:14.073Z,1.33
2023-05-05T02:27:42.989Z,1.23
2023-05-05T02:30:13.422Z,0.95
2023-05-05T02:33:00.682Z,0.90
2023-05-05T02:35:35.662Z,0.82
2023-05-05T02:38:05.612Z,1.10
2023-05-05T02:40:34.666Z,0.90
2023-05-05T02:43:06.643Z,1.00
2023-05-05T02:45:33.432Z,1.10
2023-05-05T02:48:06.427Z,0.98
2023-05-05T02:50:33.235Z,1.40
2023-05-05T02:53:00.596Z,0.85
2023-05-05T02:55:39.314Z,0.98
2023-05-05T02:58:18.376Z,0.95
2023-05-05T03:00:59.850Z,0.73
2023-05-05T03:03:38.896Z,1.15
2023-05-05T03:06:10.753Z,1.00
2023-05-05T03:08:50.017Z,1.00
2023-05-05T03:11:26.094Z,1.20
2023-05-05T03:14:01.769Z,0.80
2023-05-05T03:16:31.777Z,1.40
2023-05-05T03:19:00.160Z,1.20
2023-05-05T03:21:27.465Z,1.13
2023-05-05T03:23:54.128Z,1.08
2023-05-05T03:26:20.699Z,1.10
2023-05-05T03:28:47.263Z,1.20
2023-05-05T03:31:14.134Z,1.23
2023-05-05T03:33:40.599Z,1.10
2023-05-05T03:36:07.102Z,1.40
2023-05-05T03:38:33.628Z,1.35
2023-05-05T03:41:03.789Z,1.23
2023-05-05T03:43:30.316Z,1.67
2023-05-05T03:45:56.916Z,0.95
2023-05-05T03:48:23.509Z,1.20
2023-05-05T03:50:50.060Z,1.33
2023-05-05T03:53:16.623Z,1.38
2023-05-05T03:55:43.150Z,1.48
2023-05-05T03:58:09.688Z,1.60
2023-05-05T04:00:36.276Z,1.25
2023-05-05T04:03:03.080Z,1.52
2023-05-05T04:05:29.767Z,1.23
2023-05-05T04:07:57.944Z,1.00
2023-05-05T04:10:24.535Z,1.10
2023-05-05T04:12:51.120Z,1.17
2023-05-05T04:15:17.651Z,1.17
2023-05-05T04:17:44.313Z,0.90
2023-05-05T04:20:11.251Z,1.17
2023-05-05T04:22:37.877Z,1.00
2023-05-05T04:25:05.005Z,1.17
2023-05-05T04:27:31.567Z,1.00
2023-05-05T04:29:58.097Z,1.13
2023-05-05T04:32:24.669Z,0.82
2023-05-05T04:34:51.201Z,1.05
2023-05-05T04:37:17.671Z,1.00
2023-05-05T04:39:44.391Z,0.95
2023-05-05T04:42:11.239Z,0.93
2023-05-05T04:44:37.769Z,1.40
2023-05-05T04:47:04.347Z,1.27
2023-05-05T04:49:31.431Z,1.50
2023-05-05T04:51:58.083Z,0.80
2023-05-05T04:54:24.814Z,1.30
2023-05-05T04:56:51.633Z,1.17
2023-05-05T04:59:18.109Z,1.45
2023-05-05T05:01:44.815Z,1.13
2023-05-05T05:04:11.393Z,1.10
2023-05-05T05:06:37.853Z,1.40
2023-05-05T05:09:04.627Z,1.33
2023-05-05T05:11:31.331Z,1.50
2023-05-05T05:13:57.819Z,1.63
2023-05-05T05:16:25.250Z,1.45
2023-05-05T05:18:51.801Z,1.30
2023-05-05T05:21:18.322Z,1.67
2023-05-05T05:23:45.010Z,1.55
2023-05-05T05:26:11.532Z,1.65
2023-05-05T05:28:38.814Z,1.30
2023-05-05T05:31:05.352Z,1.60
2023-05-05T05:33:31.913Z,2.05
2023-05-05T05:35:58.376Z,1.38
2023-05-05T05:38:25.000Z,1.35
2023-05-05T05:40:51.528Z,1.23
2023-05-05T05:43:18.147Z,1.20
2023-05-05T05:45:44.666Z,2.13
2023-05-05T05:48:11.251Z,1.20
2023-05-05T05:50:37.790Z,1.33
2023-05-05T05:53:04.425Z,1.50
2023-05-05T05:55:30.975Z,1.23
2023-05-05T05:57:57.505Z,1.23
2023-05-05T06:00:24.307Z,1.33
2023-05-05T06:02:51.691Z,1.08
2023-05-05T06:05:18.355Z,0.90
2023-05-05T06:07:44.861Z,1.20
2023-05-05T06:10:25.917Z,1.10
2023-05-05T06:12:54.424Z,1.15
2023-05-05T06:15:20.996Z,1.58
2023-05-05T06:17:47.585Z,1.13
2023-05-05T06:20:14.224Z,1.05
2023-05-05T06:22:41.063Z,1.30
2023-05-05T06:25:07.892Z,1.15
2023-05-05T06:27:34.714Z,1.33
2023-05-05T06:30:01.224Z,1.13
2023-05-05T06:32:27.720Z,1.17
2023-05-05T06:34:54.259Z,1.17
2023-05-05T06:37:20.793Z,1.00
2023-05-05T06:39:47.423Z,1.10
2023-05-05T06:42:13.928Z,1.27
2023-05-05T06:44:40.578Z,0.90
2023-05-05T06:47:07.178Z,0.98
2023-05-05T06:49:33.825Z,1.30
2023-05-05T06:52:00.444Z,1.17
2023-05-05T06:54:26.911Z,0.90
2023-05-05T06:56:53.493Z,1.00
2023-05-05T06:59:20.052Z,0.80
2023-05-05T07:01:46.652Z,0.98
2023-05-05T07:04:13.233Z,0.65
2023-05-05T07:06:39.764Z,0.73
2023-05-05T07:09:06.754Z,0.70
2023-05-05T07:11:33.389Z,1.17
2023-05-05T07:13:59.962Z,0.95
2023-05-05T07:16:27.263Z,1.02
2023-05-05T07:18:53.968Z,0.93
2023-05-05T07:21:20.442Z,0.98
2023-05-05T07:23:47.838Z,1.00
2023-05-05T07:26:15.610Z,0.70
2023-05-05T07:28:43.168Z,1.00
2023-05-05T07:31:09.782Z,0.77
2023-05-05T07:33:37.436Z,0.65
2023-05-05T07:36:04.292Z,0.80
2023-05-05T07:38:30.831Z,1.42
2023-05-05T07:40:57.476Z,0.70
2023-05-05T07:43:24.152Z,1.17
2023-05-05T07:45:51.076Z,0.80
2023-05-05T07:48:17.756Z,0.90
2023-05-05T07:50:44.265Z,0.85
2023-05-05T07:53:14.774Z,0.90
2023-05-05T07:55:41.913Z,1.35
2023-05-05T07:58:08.645Z,1.42
2023-05-05T08:00:35.642Z,1.30
2023-05-05T08:03:02.257Z,1.20
2023-05-05T08:05:28.847Z,1.20
2023-05-05T08:07:55.407Z,1.10
2023-05-05T08:10:22.378Z,1.33
2023-05-05T08:12:49.197Z,1.10
2023-05-05T08:15:16.078Z,1.30
2023-05-05T08:17:50.794Z,0.90
2023-05-05T08:20:19.438Z,1.02
2023-05-05T08:22:46.891Z,0.90
2023-05-05T08:25:14.362Z,1.10
2023-05-05T08:27:42.553Z,1.08
2023-05-05T08:30:10.103Z,1.30
2023-05-05T08:32:36.902Z,1.52
2023-05-05T08:35:04.813Z,1.15
2023-05-05T08:37:31.795Z,1.17
2023-05-05T08:39:58.494Z,1.10
2023-05-05T08:42:36.218Z,1.08
2023-05-05T08:45:04.666Z,1.08
2023-05-05T08:47:32.249Z,1.05
2023-05-05T08:50:00.473Z,1.25
2023-05-05T08:52:32.651Z,1.20
2023-05-05T08:55:15.470Z,1.42
2023-05-05T08:57:50.607Z,1.00
2023-05-05T09:00:19.810Z,1.17
2023-05-05T09:02:47.471Z,1.48
2023-05-05T09:05:14.548Z,1.13
2023-05-05T09:07:44.311Z,1.30
2023-05-05T09:10:12.022Z,1.08
2023-05-05T09:12:42.295Z,0.98
2023-05-05T09:15:14.731Z,2.08
2023-05-05T09:17:42.151Z,1.38
2023-05-05T09:20:10.851Z,1.25
2023-05-05T09:22:41.957Z,1.73
2023-05-05T09:25:16.752Z,1.60
2023-05-05T09:27:48.905Z,1.73
2023-05-05T09:30:26.945Z,1.33
2023-05-05T09:32:54.918Z,1.58
2023-05-05T09:35:23.221Z,1.88
2023-05-05T09:37:49.723Z,1.25
2023-05-05T09:40:19.024Z,1.40
2023-05-05T09:42:46.031Z,1.30
2023-05-05T09:45:30.878Z,1.60
2023-05-05T09:48:00.371Z,1.52
2023-05-05T09:50:30.281Z,1.45
2023-05-05T09:52:58.200Z,1.45
2023-05-05T09:55:25.625Z,1.52
2023-05-05T09:57:52.619Z,1.38
2023-05-05T10:00:20.073Z,1.13
2023-05-05T10:02:47.160Z,1.65
2023-05-05T10:05:17.910Z,1.55
2023-05-05T10:07:46.580Z,1.27
2023-05-05T10:10:17.977Z,1.70
2023-05-05T10:12:46.770Z,1.40
2023-05-05T10:15:15.643Z,1.30
2023-05-05T10:17:58.335Z,1.60
2023-05-05T10:20:33.427Z,1.40
2023-05-05T10:23:05.577Z,1.10
2023-05-05T10:25:39.165Z,1.50
2023-05-05T10:28:06.835Z,1.10
2023-05-05T10:30:38.664Z,1.15
2023-05-05T10:35:53.784Z,1.20
2023-05-05T10:38:20.995Z,1.30
2023-05-05T10:40:48.809Z,1.45
2023-05-05T10:43:15.754Z,1.73
2023-05-05T10:45:43.407Z,1.67
2023-05-05T10:48:22.826Z,1.30
2023-05-05T10:50:57.980Z,1.08
2023-05-05T10:53:47.352Z,1.45
2023-05-05T10:56:27.322Z,1.35
2023-05-05T10:59:00.281Z,1.58
2023-05-05T11:01:35.637Z,1.50
2023-05-05T11:04:22.811Z,1.90
2023-05-05T11:07:28.344Z,1.83
2023-05-05T11:10:01.608Z,1.55
2023-05-05T11:12:29.904Z,1.10
2023-05-05T11:15:24.047Z,1.05
2023-05-05T11:17:51.341Z,1.50
2023-05-05T11:20:18.595Z,1.50
2023-05-05T11:23:03.473Z,1.15
2023-05-05T11:25:36.580Z,1.25
2023-05-05T11:28:11.569Z,1.23
2023-05-05T11:30:59.765Z,1.20
2023-05-05T11:33:35.102Z,1.45
2023-05-05T11:36:06.114Z,1.25
2023-05-05T11:38:36.873Z,1.50
2023-05-05T11:41:12.873Z,1.25
2023-05-05T11:43:41.773Z,1.40
2023-05-05T11:46:12.869Z,1.30
2023-05-05T11:48:50.081Z,1.15
2023-05-05T11:51:17.564Z,1.55
2023-05-05T11:53:49.389Z,1.25
2023-05-05T11:56:21.774Z,1.17
2023-05-05T11:58:49.189Z,1.20
2023-05-05T12:01:15.941Z,1.50
2023-05-05T12:03:43.427Z,1.13
2023-05-05T12:06:10.186Z,1.08
2023-05-05T12:08:38.068Z,1.00
2023-05-05T12:11:08.872Z,1.20
2023-05-05T12:13:35.741Z,1.30
2023-05-05T12:16:12.895Z,1.23
2023-05-05T12:18:40.335Z,1.40
2023-05-05T12:21:20.448Z,1.20
2023-05-05T12:23:47.185Z,1.25
2023-05-05T12:26:28.052Z,1.23
2023-05-05T12:28:58.960Z,1.55
2023-05-05T12:31:39.763Z,1.30
2023-05-05T12:34:08.470Z,1.02
2023-05-05T12:36:36.657Z,1.17
2023-05-05T12:39:08.195Z,1.52
2023-05-05T12:41:34.996Z,1.60
2023-05-05T12:44:05.723Z,1.38
2023-05-05T12:46:45.356Z,1.00
2023-05-05T12:49:12.055Z,1.33
2023-05-05T12:51:39.226Z,1.98
2023-05-05T12:54:10.247Z,1.58
2023-05-05T12:56:41.836Z,1.30
2023-05-05T12:59:09.119Z,1.42
2023-05-05T13:01:38.077Z,1.10
2023-05-05T13:04:12.851Z,1.27
2023-05-05T13:06:44.448Z,1.20
2023-05-05T13:09:24.876Z,1.33
2023-05-05T13:11:52.668Z,1.70
2023-05-05T13:14:19.374Z,1.60
2023-05-05T13:16:46.166Z,1.33
2023-05-05T13:19:12.827Z,1.20
2023-05-05T13:21:39.438Z,1.58
2023-05-05T13:24:21.302Z,1.33
2023-05-05T13:26:53.241Z,1.02
2023-05-05T13:29:19.865Z,1.13
2023-05-05T13:31:46.489Z,1.20
2023-05-05T13:34:13.057Z,1.30
2023-05-05T13:36:39.583Z,1.60
2023-05-05T13:39:07.057Z,1.40
2023-05-05T13:41:33.626Z,1.33
2023-05-05T13:44:00.168Z,1.70
2023-05-05T13:46:26.688Z,1.50
2023-05-05T13:48:56.656Z,1.40
2023-05-05T13:51:23.563Z,1.40
2023-05-05T13:53:50.338Z,1.33
2023-05-05T13:56:18.147Z,1.38
2023-05-05T13:58:44.938Z,1.00
2023-05-05T14:01:11.517Z,1.30
2023-05-05T14:03:39.619Z,1.15
2023-05-05T14:06:07.962Z,1.15
2023-05-05T14:08:34.601Z,1.58
2023-05-05T14:11:01.972Z,1.17
2023-05-05T14:13:28.574Z,0.80
2023-05-05T14:15:55.251Z,1.50
2023-05-05T14:18:22.761Z,1.30
2023-05-05T14:20:49.241Z,1.17
2023-05-05T14:23:15.875Z,1.20
2023-05-05T14:25:42.693Z,1.33
2023-05-05T14:28:09.552Z,1.25
2023-05-05T14:30:36.154Z,1.00
2023-05-05T14:33:02.794Z,0.90
2023-05-05T14:35:30.127Z,1.20
2023-05-05T14:37:56.769Z,1.38
2023-05-05T14:40:23.639Z,0.90
2023-05-05T14:42:50.872Z,1.20
2023-05-05T14:45:17.387Z,1.20
2023-05-05T14:47:43.998Z,1.10
2023-05-05T14:50:10.845Z,1.23
2023-05-05T14:52:39.741Z,1.23
2023-05-05T14:55:07.317Z,1.10
2023-05-05T14:57:34.121Z,1.60
2023-05-05T15:00:00.674Z,0.90
2023-05-05T15:02:27.259Z,1.02
2023-05-05T15:04:53.835Z,1.40
2023-05-05T15:07:21.369Z,1.52
2023-05-05T15:09:47.931Z,1.13
2023-05-05T15:12:14.480Z,1.17
2023-05-05T15:14:41.322Z,1.00
2023-05-05T15:17:07.813Z,1.10
2023-05-05T15:19:34.348Z,1.20
2023-05-05T15:22:00.937Z,0.93
2023-05-05T15:24:27.404Z,1.20
2023-05-05T15:26:53.917Z,1.00
2023-05-05T15:29:20.509Z,1.27
2023-05-05T15:31:47.092Z,1.10
2023-05-05T15:34:13.616Z,1.73
2023-05-05T15:36:40.135Z,1.00
2023-05-05T15:39:06.854Z,1.10
2023-05-05T15:41:34.601Z,0.90
2023-05-05T15:44:03.184Z,1.50
2023-05-05T15:46:33.315Z,1.88
2023-05-05T15:49:00.054Z,1.27
2023-05-05T15:51:27.294Z,0.90
2023-05-05T15:53:53.896Z,1.30
2023-05-05T15:56:20.498Z,1.48
2023-05-05T15:58:47.073Z,0.93
2023-05-05T16:01:13.899Z,1.40
2023-05-05T16:03:40.466Z,0.70
2023-05-05T16:06:07.445Z,1.38
2023-05-05T16:08:33.966Z,1.10
2023-05-05T16:11:01.281Z,0.90
2023-05-05T16:13:27.855Z,1.02
2023-05-05T16:15:54.374Z,1.05
2023-05-05T16:18:21.247Z,1.23
2023-05-05T16:20:47.875Z,1.20
2023-05-05T16:23:14.759Z,1.13
2023-05-05T16:25:41.264Z,1.42
2023-05-05T16:28:07.825Z,1.25
2023-05-05T16:30:34.371Z,1.02
2023-05-05T16:33:00.914Z,1.20
2023-05-05T16:35:27.522Z,1.35
2023-05-05T16:37:54.111Z,1.20
2023-05-05T16:40:20.713Z,1.48
2023-05-05T16:42:47.235Z,1.25
2023-05-05T16:45:13.775Z,1.25
2023-05-05T16:47:40.455Z,1.38
2023-05-05T16:50:07.880Z,1.25
2023-05-05T16:52:34.479Z,1.10
2023-05-05T16:55:01.066Z,1.25
2023-05-05T16:57:27.738Z,1.20
2023-05-05T16:59:56.184Z,1.55
2023-05-05T17:02:22.791Z,1.30
2023-05-05T17:04:49.375Z,1.30
2023-05-05T17:07:15.905Z,1.48
2023-05-05T17:09:42.445Z,1.13
2023-05-05T17:12:09.125Z,1.45
2023-05-05T17:14:35.886Z,1.20
2023-05-05T17:17:02.365Z,1.00
2023-05-05T17:19:28.950Z,1.13
2023-05-05T17:21:55.710Z,1.10
2023-05-05T17:24:22.740Z,1.95
2023-05-05T17:26:49.824Z,1.83
2023-05-05T17:29:19.853Z,2.70
2023-05-05T17:31:46.806Z,1.40
2023-05-05T17:34:13.427Z,2.05
2023-05-05T17:36:40.348Z,1.05
2023-05-05T17:39:06.985Z,1.45
2023-05-05T17:41:33.831Z,1.20
2023-05-05T17:44:00.407Z,1.10
2023-05-05T17:46:27.411Z,2.58
2023-05-05T17:48:54.589Z,1.40
2023-05-05T17:51:21.271Z,1.80
2023-05-05T17:53:47.743Z,2.67
2023-05-05T17:56:14.258Z,1.58
2023-05-05T17:58:41.290Z,1.08
2023-05-05T18:01:07.816Z,1.73
2023-05-05T18:03:34.533Z,1.27
2023-05-05T18:06:02.343Z,1.20
2023-05-05T18:08:28.946Z,1.05
2023-05-05T18:10:55.445Z,1.30
2023-05-05T18:13:22.346Z,1.10
2023-05-05T18:15:48.845Z,1.13
2023-05-05T18:18:15.398Z,1.15
2023-05-05T18:20:43.532Z,1.38
2023-05-05T18:23:11.178Z,2.22
2023-05-05T18:25:37.768Z,1.50
2023-05-05T18:28:04.835Z,3.50
2023-05-05T18:30:32.608Z,1.92
2023-05-05T18:32:59.376Z,1.35
2023-05-05T18:35:26.033Z,1.52
2023-05-05T18:37:54.481Z,1.13
2023-05-05T18:40:24.223Z,1.38
2023-05-05T18:42:51.112Z,0.90
2023-05-05T18:45:17.639Z,1.60
2023-05-05T18:47:44.197Z,1.65
2023-05-05T18:50:11.104Z,1.73
2023-05-05T18:52:37.659Z,1.75
2023-05-05T18:55:04.659Z,2.65
2023-05-05T18:57:33.681Z,2.35
2023-05-05T19:00:01.122Z,2.20
2023-05-05T19:02:27.901Z,2.03
2023-05-05T19:04:55.438Z,3.03
2023-05-05T19:07:33.871Z,2.50
2023-05-05T19:10:01.876Z,3.20
2023-05-05T19:12:28.435Z,2.97
2023-05-05T19:14:55.568Z,3.40
2023-05-05T19:17:22.233Z,3.50
2023-05-05T19:19:48.785Z,7.22
2023-05-05T19:22:17.439Z,4.85
2023-05-05T19:24:44.033Z,6.57
2023-05-05T19:27:15.438Z,5.22
2023-05-05T19:29:43.250Z,4.38
2023-05-05T19:32:10.151Z,5.55
2023-05-05T19:34:37.048Z,4.95
2023-05-05T19:37:03.672Z,4.68
2023-05-05T19:39:30.461Z,4.75
2023-05-05T19:41:58.970Z,4.68
2023-05-05T19:44:26.104Z,5.32
2023-05-05T19:46:53.374Z,4.68
2023-05-05T19:49:19.998Z,4.85
2023-05-05T19:51:49.819Z,5.25
2023-05-05T19:54:16.559Z,4.88
2023-05-05T19:56:43.307Z,3.92
2023-05-05T19:59:10.944Z,3.13
2023-05-05T20:01:37.673Z,3.08
2023-05-05T20:04:04.394Z,3.25
2023-05-05T20:06:31.354Z,4.65
2023-05-05T20:08:58.815Z,3.47
2023-05-05T20:11:26.403Z,3.13
2023-05-05T20:13:53.350Z,3.38
2023-05-05T20:16:20.174Z,3.40
2023-05-05T20:18:46.918Z,3.17
2023-05-05T20:21:14.332Z,2.88
2023-05-05T20:23:42.904Z,2.63
2023-05-05T20:26:09.882Z,2.08
2023-05-05T20:28:39.742Z,2.80
2023-05-05T20:31:07.691Z,2.45
2023-05-05T20:33:34.744Z,2.30
2023-05-05T20:36:01.691Z,2.58
2023-05-05T20:38:28.252Z,2.40
2023-05-05T20:40:54.861Z,2.63
2023-05-05T20:43:21.477Z,2.22
2023-05-05T20:45:48.087Z,2.25
2023-05-05T20:48:14.612Z,2.70
2023-05-05T20:50:41.808Z,2.70
2023-05-05T20:53:09.598Z,3.10
2023-05-05T20:55:36.530Z,2.72
2023-05-05T20:58:04.771Z,2.65
2023-05-05T21:00:32.004Z,2.33
2023-05-05T21:02:58.850Z,3.40
2023-05-05T21:05:25.898Z,2.42
2023-05-05T21:07:54.086Z,2.78
2023-05-05T21:10:20.915Z,2.97
2023-05-05T21:12:47.659Z,3.22
2023-05-05T21:15:14.540Z,3.33
2023-05-05T21:17:41.251Z,3.25
2023-05-05T21:20:08.786Z,2.95
2023-05-05T21:22:35.579Z,3.45
2023-05-05T21:25:20.049Z,3.55
2023-05-05T21:30:14.111Z,3.30
2023-05-05T21:32:41.666Z,3.13
2023-05-05T21:35:09.380Z,3.28
2023-05-05T21:37:39.362Z,2.63
2023-05-05T21:40:11.144Z,3.47
2023-05-05T21:42:38.035Z,5.45
2023-05-05T21:45:04.899Z,4.07
2023-05-05T21:47:31.538Z,4.15
2023-05-05T21:49:58.993Z,3.63
2023-05-05T21:52:25.574Z,3.53
2023-05-05T21:54:52.225Z,3.40
2023-05-05T21:57:18.772Z,3.35
2023-05-05T21:59:45.679Z,3.40
2023-05-05T22:02:12.291Z,4.05
2023-05-05T22:04:38.846Z,3.30
2023-05-05T22:07:05.844Z,4.20
2023-05-05T22:09:32.540Z,3.40
2023-05-05T22:11:59.124Z,4.20
2023-05-05T22:14:25.686Z,3.95
2023-05-05T22:16:52.201Z,3.95
2023-05-05T22:19:18.749Z,4.55
2023-05-05T22:21:45.285Z,5.90
2023-05-05T22:24:11.804Z,6.95
2023-05-05T22:26:43.070Z,5.97
2023-05-05T22:29:10.693Z,6.80
2023-05-05T22:31:37.801Z,4.82
2023-05-05T22:34:04.470Z,4.25
2023-05-05T22:36:31.577Z,4.68
2023-05-05T22:38:58.166Z,4.95
2023-05-05T22:41:25.003Z,4.45
2023-05-05T22:43:51.614Z,4.22
2023-05-05T22:46:18.246Z,4.78
2023-05-05T22:48:44.840Z,4.75
2023-05-05T22:51:11.391Z,5.63
2023-05-05T22:53:38.828Z,5.40
2023-05-05T22:56:06.575Z,4.70
2023-05-05T22:58:33.133Z,5.38
2023-05-05T23:00:59.745Z,5.15
2023-05-05T23:03:26.326Z,5.38
2023-05-05T23:05:52.902Z,6.05
2023-05-05T23:08:20.365Z,6.03
2023-05-05T23:10:47.172Z,5.50
2023-05-05T23:13:13.853Z,5.50
2023-05-05T23:15:41.212Z,5.80
2023-05-05T23:18:08.079Z,5.13
2023-05-05T23:20:34.741Z,5.10
2023-05-05T23:23:01.377Z,4.85
2023-05-05T23:25:27.915Z,5.72
2023-05-05T23:27:54.503Z,5.60
2023-05-05T23:30:21.210Z,6.75
2023-05-05T23:32:47.781Z,8.20
2023-05-05T23:35:14.346Z,5.68
2023-05-05T23:37:41.002Z,5.43
2023-05-05T23:40:08.270Z,5.97
2023-05-05T23:42:34.790Z,5.53
2023-05-05T23:45:01.366Z,5.68
2023-05-05T23:47:27.969Z,4.25
2023-05-05T23:49:54.470Z,6.30
2023-05-05T23:52:21.089Z,7.65
2023-05-05T23:54:47.624Z,6.72
2023-05-05T23:57:14.219Z,7.15
2023-05-05T23:59:41.686Z,5.90
